Readfield, Wisconsin
Current Conditions -  °F | °C
As of 12:45 PM on Thursday 23 Oct 2014 (Local Time) from KATW Reporting Station
Broken Clouds Broken Clouds  
Wind Chill: 52°   Ceiling: 4400
Heat Index: 52°   Visibility: 10mi
Dew Point: 41°   Wind: 9mph
Humidity: 67%   Direction: 210°SSW
Pressure: 30.1"   Gusts: NA
Location:  44.27°N, 88.77°W
Report Text: KATW 231745Z 21008KT 10SM BKN044 BKN060 11/05 A3010
Loading
Personal Weather Stations






























Interactive Weather Map
Tropical Storm Tracking
New forecast layout! Learn more

10-Day Weather Forecast

Advertisements
Track Severe Weather on mobile